Nearby METAR Reports

 

KMAE - Madera, California, USA
Distance from station: SW 38mi, 61km
Updated: Tue, 27-Sep-2022 6:53pm PDT
Clear
Clear
 Wind from N
Wind: N 3 mph , 6 km/h
Temperature: 82°F , 28°C
Heat Index: 81°F , 27°C
Dew Point: 55°F , 13°C
Humidity: 40%
Barometer: 29.88 inHg , 1011.9 hPa
Clouds: Clear
Visibility: 10 miles , 16 km
2022/09/28 01:53 KMAE 280153Z AUTO 35003KT 10SM CLR 28/13 A2988 RMK AO2 SLP114 T02830128
KFAT - Fresno, California, USA
Distance from station: S 39mi, 63km
Updated: Tue, 27-Sep-2022 6:53pm PDT
Partly cloudy
Partly cloudy
 Wind from NW
Wind: NW 8 mph , 13 km/h
Temperature: 90°F , 32°C
Dew Point: 54°F , 12°C
Humidity: 29%
Barometer: 29.86 inHg , 1011.2 hPa
Clouds: Partly cloudy
Visibility: 10 miles , 16 km
Cloud details: Few Clouds 10000 ft
Partly cloudy 20000 ft
2022/09/28 01:53 KFAT 280153Z 31007KT 10SM FEW100 SCT200 32/12 A2986 RMK AO2 SLP109 TCU DSNT SE MTNS OBSC FU HZ DSNT E-S T03220117
 
KMMH - Mammoth/June Lak, California, USA
Distance from station: ENE 46mi, 75km
Updated: Tue, 27-Sep-2022 7:16pm PDT
Clear
Clear
 Wind from SSW
Wind: SSW 17 mph , 28 km/h, Gust: 23 mph , 37 km/h
Temperature: 66°F , 19°C
Dew Point: 28°F , -2°C
Humidity: 24%
Barometer: 30.30 inHg , 1026.1 hPa
Clouds: Clear
Visibility: 10 miles , 16 km
2022/09/28 02:16 KMMH 280216Z AUTO 21015G20KT 10SM CLR 19/M02 A3030 RMK AO2
KMCE - Merced, California, USA
Distance from station: W 50mi, 81km
Updated: Tue, 27-Sep-2022 6:53pm PDT
Clear
Clear
 Wind from NNW
Wind: NNW 7 mph , 11 km/h
Temperature: 81°F , 27°C
Dew Point: 50°F , 10°C
Humidity: 34%
Barometer: 29.87 inHg , 1011.5 hPa
Clouds: Clear
Visibility: 10 miles , 16 km
2022/09/28 01:53 KMCE 280153Z AUTO 34006KT 10SM CLR 27/10 A2987 RMK AO2 SLP115 T02670100